Time;durP1;ratioP1;P1;durP2;ratioP2;P2;SDS_P1;SDS_P2;PMS_P1;PMS_P2;Temp;Humidity;BMP_temperature;BMP_pressure;BME280_temperature;BME280_humidity;BME280_pressure;Samples;Min_cycle;Max_cycle;Signal;HPM_P1;HPM_P2
2022/04/07 00:00:40;;;;;;;5.95;2.00;;;10.60;99.90;;;;;;5115109;28;20382;-78
2022/04/07 00:03:07;;;;;;;4.50;1.70;;;10.60;99.90;;;;;;5115008;28;20291;-80
2022/04/07 00:05:34;;;;;;;10.03;2.50;;;10.50;99.90;;;;;;5115521;28;20208;-79
2022/04/07 00:08:02;;;;;;;7.37;1.80;;;10.50;99.90;;;;;;5115619;27;20204;-80
2022/04/07 00:10:29;;;;;;;8.10;1.80;;;10.60;99.90;;;;;;5114499;28;20204;-79
2022/04/07 00:12:56;;;;;;;5.07;2.00;;;10.60;99.90;;;;;;5114014;28;20200;-78
2022/04/07 00:15:24;;;;;;;8.30;1.97;;;10.50;99.90;;;;;;5113393;28;20200;-79
2022/04/07 00:17:51;;;;;;;6.00;2.20;;;10.50;99.90;;;;;;5112834;28;20433;-82
2022/04/07 00:20:18;;;;;;;8.63;2.00;;;10.50;99.90;;;;;;5115110;27;20315;-79
2022/04/07 00:22:47;;;;;;;5.07;1.70;;;10.40;99.90;;;;;;5113739;28;20276;-81
2022/04/07 00:25:14;;;;;;;5.60;2.33;;;10.40;99.90;;;;;;5112004;28;20516;-81
2022/04/07 00:27:41;;;;;;;5.00;2.20;;;10.40;99.90;;;;;;5113618;28;20640;-80
2022/04/07 00:30:09;;;;;;;4.93;1.70;;;10.40;99.90;;;;;;5113653;28;20228;-79
2022/04/07 00:32:42;;;;;;;7.63;2.13;;;10.50;99.90;;;;;;5113194;28;20605;-79
2022/04/07 00:35:12;;;;;;;7.10;1.90;;;10.50;99.90;;;;;;5113997;28;20204;-82
2022/04/07 00:37:40;;;;;;;9.70;2.27;;;10.50;99.90;;;;;;5113844;28;20724;-82
2022/04/07 00:40:09;;;;;;;7.87;1.90;;;10.50;99.90;;;;;;5113571;28;20227;-80
2022/04/07 00:42:44;;;;;;;8.73;2.87;;;10.50;99.90;;;;;;5111458;28;20212;-80
2022/04/07 00:45:12;;;;;;;6.43;1.80;;;10.50;99.90;;;;;;5113237;28;20251;-80
2022/04/07 00:47:39;;;;;;;10.53;2.40;;;10.50;99.90;;;;;;5113556;28;20201;-80
2022/04/07 00:50:08;;;;;;;8.47;2.00;;;10.40;99.90;;;;;;5113234;28;20195;-80
2022/04/07 00:52:36;;;;;;;10.90;2.30;;;10.50;99.90;;;;;;5113151;28;20207;-79
2022/04/07 00:55:06;;;;;;;8.57;2.40;;;10.60;99.90;;;;;;5113219;28;20193;-79
2022/04/07 00:57:33;;;;;;;9.40;2.60;;;10.60;99.90;;;;;;5113013;28;20660;-80
2022/04/07 01:00:00;;;;;;;8.23;2.30;;;10.60;99.90;;;;;;5112958;28;20220;-81
2022/04/07 01:02:27;;;;;;;5.87;1.97;;;10.70;99.90;;;;;;5113275;28;20188;-78
2022/04/07 01:04:54;;;;;;;6.87;1.67;;;10.70;99.90;;;;;;5113101;28;20260;-79
2022/04/07 01:07:23;;;;;;;8.53;1.93;;;10.70;99.90;;;;;;5113026;28;20201;-78
2022/04/07 01:09:50;;;;;;;8.30;1.90;;;10.70;99.90;;;;;;5111908;28;20204;-79
2022/04/07 01:12:17;;;;;;;5.83;1.90;;;10.60;99.90;;;;;;5113183;28;20612;-79
2022/04/07 01:14:58;;;;;;;4.07;2.13;;;10.60;99.90;;;;;;5113164;28;20211;-78
2022/04/07 01:17:25;;;;;;;9.33;2.57;;;10.70;99.90;;;;;;5112549;28;20257;-78
2022/04/07 01:19:53;;;;;;;4.47;1.77;;;10.70;99.90;;;;;;5112774;28;20224;-80
2022/04/07 01:22:22;;;;;;;6.23;1.97;;;10.70;99.90;;;;;;5113180;28;20192;-81
2022/04/07 01:24:50;;;;;;;7.03;2.00;;;10.70;99.90;;;;;;5112865;28;20219;-80
2022/04/07 01:27:19;;;;;;;6.77;2.13;;;10.70;99.90;;;;;;5112613;28;20303;-83
2022/04/07 01:29:46;;;;;;;5.20;1.80;;;10.70;99.90;;;;;;5112688;28;20702;-81
2022/04/07 01:32:18;;;;;;;4.50;1.70;;;10.70;99.90;;;;;;5112866;28;20580;-81
2022/04/07 01:34:45;;;;;;;5.68;2.22;;;10.70;99.90;;;;;;5112145;28;20433;-82
2022/04/07 01:37:13;;;;;;;9.83;2.30;;;10.70;99.90;;;;;;5112798;28;20208;-82
2022/04/07 01:39:42;;;;;;;5.17;1.73;;;10.70;99.90;;;;;;5112983;27;20698;-79
2022/04/07 01:42:14;;;;;;;7.33;2.07;;;10.70;99.90;;;;;;5112738;28;20204;-80
2022/04/07 01:44:46;;;;;;;6.37;1.97;;;10.70;99.90;;;;;;5116083;28;20208;-80
2022/04/07 01:47:15;;;;;;;7.77;2.47;;;10.70;99.90;;;;;;5116469;28;20559;-81
2022/04/07 01:49:45;;;;;;;6.13;1.87;;;10.60;99.90;;;;;;5116390;28;20192;-79
2022/04/07 01:52:13;;;;;;;9.87;2.53;;;10.70;99.90;;;;;;5116577;28;20204;-81
2022/04/07 01:54:42;;;;;;;5.40;1.83;;;10.60;99.90;;;;;;5116350;28;20212;-80
2022/04/07 01:57:10;;;;;;;9.47;2.53;;;10.70;99.90;;;;;;5116265;28;20195;-80
2022/04/07 01:59:38;;;;;;;8.17;2.80;;;10.70;99.90;;;;;;5123659;28;20228;-80
2022/04/07 02:02:05;;;;;;;6.33;2.20;;;10.70;99.90;;;;;;5130390;28;20207;-77
2022/04/07 02:04:32;;;;;;;8.77;2.53;;;10.80;99.90;;;;;;5130898;28;20207;-80
2022/04/07 02:06:59;;;;;;;9.50;2.43;;;10.80;99.90;;;;;;5131384;28;20230;-80
2022/04/07 02:09:26;;;;;;;14.63;2.80;;;10.80;99.90;;;;;;5128997;28;20201;-79
2022/04/07 02:11:53;;;;;;;10.83;2.40;;;10.70;99.90;;;;;;5125976;28;20200;-80
2022/04/07 02:14:20;;;;;;;8.10;2.40;;;10.70;99.90;;;;;;5117056;28;20195;-78
2022/04/07 02:16:50;;;;;;;7.67;1.93;;;10.90;99.90;;;;;;5116801;28;20201;-78
2022/04/07 02:19:16;;;;;;;10.43;2.23;;;10.80;99.90;;;;;;5116820;28;20220;-79
2022/04/07 02:21:45;;;;;;;7.27;2.33;;;10.80;99.90;;;;;;5116807;28;20523;-80
2022/04/07 02:24:12;;;;;;;7.00;2.40;;;10.80;99.90;;;;;;5116608;28;20200;-78
2022/04/07 02:26:39;;;;;;;7.27;2.43;;;10.80;99.90;;;;;;5116582;28;20207;-79
2022/04/07 02:29:06;;;;;;;8.33;2.30;;;10.80;99.90;;;;;;5116654;27;20235;-77
2022/04/07 02:31:33;;;;;;;5.63;1.97;;;10.70;99.90;;;;;;5116424;28;20200;-81
2022/04/07 02:34:02;;;;;;;5.90;2.10;;;10.70;99.90;;;;;;5117469;28;20211;-78
2022/04/07 02:36:28;;;;;;;8.57;1.93;;;10.70;99.90;;;;;;5116429;27;20212;-81
2022/04/07 02:38:56;;;;;;;6.03;2.10;;;10.70;99.90;;;;;;5115885;27;20568;-79
2022/04/07 02:41:24;;;;;;;10.60;3.53;;;10.70;99.90;;;;;;5116049;28;20721;-79
2022/04/07 02:43:51;;;;;;;12.67;2.53;;;10.70;99.90;;;;;;5116172;28;20620;-81
2022/04/07 02:46:18;;;;;;;7.47;1.97;;;10.70;99.90;;;;;;5116404;28;20204;-79
2022/04/07 02:48:46;;;;;;;9.17;2.03;;;10.70;99.90;;;;;;5116337;28;20204;-79
2022/04/07 02:51:15;;;;;;;8.77;2.07;;;10.60;99.90;;;;;;5116070;28;20571;-78
2022/04/07 02:53:42;;;;;;;4.30;2.00;;;10.60;99.90;;;;;;5116264;28;20662;-79
2022/04/07 02:56:08;;;;;;;6.40;2.50;;;10.60;99.90;;;;;;5115632;28;20205;-79
2022/04/07 02:58:35;;;;;;;4.63;1.90;;;10.60;99.90;;;;;;5115626;28;20207;-79
2022/04/07 03:01:03;;;;;;;5.57;1.77;;;10.50;99.90;;;;;;5115261;28;20557;-79
2022/04/07 03:03:30;;;;;;;4.17;2.17;;;10.60;99.90;;;;;;5115662;28;20212;-82
2022/04/07 03:05:56;;;;;;;3.67;1.80;;;10.60;99.90;;;;;;5115045;28;20682;-80
2022/04/07 03:08:25;;;;;;;7.90;1.70;;;10.60;99.90;;;;;;5116549;28;20205;-78
2022/04/07 03:10:51;;;;;;;7.17;1.83;;;10.60;99.90;;;;;;5115159;28;20212;-79
2022/04/07 03:13:19;;;;;;;4.70;2.53;;;10.60;99.90;;;;;;5116814;28;20200;-79
2022/04/07 03:15:46;;;;;;;5.50;2.50;;;10.50;99.90;;;;;;5116450;27;20200;-80
2022/04/07 03:18:15;;;;;;;7.63;3.07;;;10.60;99.90;;;;;;5115897;28;20208;-79
2022/04/07 03:20:42;;;;;;;5.10;2.33;;;10.60;99.90;;;;;;5116212;28;20227;-81
2022/04/07 03:23:09;;;;;;;3.70;2.03;;;10.60;99.90;;;;;;5116416;28;20806;-81
2022/04/07 03:25:37;;;;;;;4.27;1.73;;;10.60;99.90;;;;;;5115463;28;20694;-79
2022/04/07 03:28:05;;;;;;;2.67;1.83;;;10.70;99.90;;;;;;5115570;28;20188;-78
2022/04/07 03:30:31;;;;;;;3.97;1.70;;;10.70;99.90;;;;;;5114717;28;20657;-80
2022/04/07 03:32:58;;;;;;;4.13;1.70;;;10.70;99.90;;;;;;5114778;28;20200;-79
2022/04/07 03:35:25;;;;;;;3.87;1.40;;;10.60;99.90;;;;;;5115573;28;20201;-81
2022/04/07 03:37:53;;;;;;;2.97;1.87;;;10.50;99.90;;;;;;5115234;28;20193;-81
2022/04/07 03:40:20;;;;;;;2.87;2.07;;;10.50;99.90;;;;;;5115054;28;20232;-84
2022/04/07 03:42:48;;;;;;;3.10;1.90;;;10.50;99.90;;;;;;5115063;28;20188;-79
2022/04/07 03:45:15;;;;;;;2.53;2.10;;;10.40;99.90;;;;;;5114532;28;20200;-81
2022/04/07 03:47:41;;;;;;;2.87;2.13;;;10.40;99.90;;;;;;5114952;27;20204;-79
2022/04/07 03:50:10;;;;;;;2.60;2.40;;;10.40;99.90;;;;;;5114486;28;20200;-79
2022/04/07 03:52:37;;;;;;;3.30;2.13;;;10.40;99.90;;;;;;5114508;28;20200;-80
2022/04/07 03:55:06;;;;;;;3.13;1.95;;;10.40;99.90;;;;;;5113795;28;20485;-80
2022/04/07 03:57:33;;;;;;;2.50;1.93;;;10.40;99.90;;;;;;5114969;28;20207;-80
2022/04/07 04:00:04;;;;;;;3.77;1.60;;;10.40;99.90;;;;;;5114852;28;20247;-79
2022/04/07 04:02:30;;;;;;;4.17;1.37;;;10.30;99.90;;;;;;5114139;28;20652;-78
2022/04/07 04:04:57;;;;;;;5.20;1.37;;;10.30;99.90;;;;;;5115743;28;20211;-78
2022/04/07 04:07:25;;;;;;;3.33;1.30;;;10.30;99.90;;;;;;5114660;28;20287;-79
2022/04/07 04:09:52;;;;;;;4.17;1.60;;;10.30;99.90;;;;;;5114229;28;20188;-79
2022/04/07 04:12:19;;;;;;;3.80;1.70;;;10.30;99.90;;;;;;5114266;28;20200;-82
2022/04/07 04:14:46;;;;;;;4.17;1.50;;;10.30;99.90;;;;;;5114757;28;20220;-81
2022/04/07 04:17:14;;;;;;;3.80;1.80;;;10.20;99.90;;;;;;5114433;28;20207;-82
2022/04/07 04:19:42;;;;;;;6.00;1.80;;;10.10;99.90;;;;;;5114551;28;20200;-81
2022/04/07 04:22:08;;;;;;;6.10;2.33;;;10.10;99.90;;;;;;5113788;28;20189;-81
2022/04/07 04:24:35;;;;;;;7.30;2.40;;;10.00;99.90;;;;;;5114556;27;20539;-81
2022/04/07 04:27:02;;;;;;;7.33;2.47;;;10.00;99.90;;;;;;5115170;28;20200;-79
2022/04/07 04:29:30;;;;;;;5.47;2.40;;;10.00;99.90;;;;;;5114418;28;20221;-80
2022/04/07 04:31:58;;;;;;;7.90;2.73;;;9.90;99.90;;;;;;5114223;28;20204;-83
2022/04/07 04:34:30;;;;;;;4.30;2.20;;;10.00;99.90;;;;;;5114312;28;20200;-79
2022/04/07 04:36:59;;;;;;;8.63;2.60;;;10.00;99.90;;;;;;5114400;28;20222;-82
2022/04/07 04:39:26;;;;;;;6.20;2.27;;;10.00;99.90;;;;;;5115183;27;20189;-83
2022/04/07 04:41:53;;;;;;;7.53;2.73;;;10.00;99.90;;;;;;5115079;28;20220;-82
2022/04/07 04:44:19;;;;;;;6.87;2.33;;;10.00;99.90;;;;;;5114095;28;20830;-80
2022/04/07 04:46:46;;;;;;;5.67;2.40;;;10.00;99.90;;;;;;5114663;28;20204;-80
2022/04/07 04:49:13;;;;;;;6.17;2.17;;;10.00;99.90;;;;;;5114056;28;20203;-79
2022/04/07 04:51:45;;;;;;;6.83;2.00;;;10.00;99.90;;;;;;5113654;28;20199;-77
2022/04/07 04:54:13;;;;;;;7.73;2.37;;;10.00;99.90;;;;;;5112915;28;20200;-78
2022/04/07 04:56:40;;;;;;;8.90;2.63;;;10.00;99.90;;;;;;5114429;28;20204;-76
2022/04/07 04:59:07;;;;;;;7.30;2.38;;;10.00;99.90;;;;;;5113088;28;20431;-78
2022/04/07 05:01:33;;;;;;;7.10;2.07;;;10.10;99.90;;;;;;5114626;28;20232;-79
2022/04/07 05:04:00;;;;;;;5.50;2.07;;;10.10;99.90;;;;;;5114305;28;20212;-76
2022/04/07 05:06:27;;;;;;;9.80;2.00;;;10.10;99.90;;;;;;5113278;28;20200;-79
2022/04/07 05:08:55;;;;;;;7.30;2.20;;;10.10;99.90;;;;;;5114058;28;20219;-78
2022/04/07 05:11:22;;;;;;;6.03;1.93;;;10.20;99.90;;;;;;5114453;28;20200;-79
2022/04/07 05:13:48;;;;;;;7.05;1.92;;;10.20;99.90;;;;;;5114402;28;20768;-79
2022/04/07 05:16:18;;;;;;;4.70;1.87;;;10.20;99.90;;;;;;5114424;28;20192;-78
2022/04/07 05:18:47;;;;;;;5.23;1.90;;;10.30;99.90;;;;;;5116932;28;20204;-78
2022/04/07 05:21:15;;;;;;;7.93;1.63;;;10.30;99.90;;;;;;5118028;28;20597;-79
2022/04/07 05:23:42;;;;;;;3.53;1.90;;;10.30;99.90;;;;;;5118033;28;20189;-77
2022/04/07 05:26:12;;;;;;;8.43;1.70;;;10.20;99.90;;;;;;5117457;27;20208;-79
2022/04/07 05:28:39;;;;;;;9.70;2.60;;;10.20;99.90;;;;;;5117464;28;20209;-78
2022/04/07 05:31:06;;;;;;;7.77;2.03;;;10.20;99.90;;;;;;5117790;28;20253;-78
2022/04/07 05:33:33;;;;;;;9.37;1.97;;;10.20;99.90;;;;;;5117488;28;20204;-79
2022/04/07 05:36:01;;;;;;;6.97;1.80;;;10.20;99.90;;;;;;5119840;27;20218;-79
2022/04/07 05:38:27;;;;;;;5.63;1.50;;;10.20;99.90;;;;;;5138074;27;20559;-83
2022/04/07 05:40:54;;;;;;;5.50;2.23;;;10.20;99.90;;;;;;5138133;27;20223;-83
2022/04/07 05:43:22;;;;;;;4.70;1.67;;;10.20;99.90;;;;;;5138070;27;20215;-78
2022/04/07 05:45:52;;;;;;;6.83;2.00;;;10.20;99.90;;;;;;5138219;27;20210;-79
2022/04/07 05:48:20;;;;;;;7.40;1.93;;;10.20;99.90;;;;;;5132709;27;20231;-83
2022/04/07 05:50:47;;;;;;;8.83;1.90;;;10.20;99.90;;;;;;5122659;27;20211;-80
2022/04/07 05:53:15;;;;;;;5.20;1.93;;;10.10;99.90;;;;;;5125086;27;20196;-83
2022/04/07 05:55:42;;;;;;;8.17;2.03;;;10.00;99.90;;;;;;5135949;27;20206;-79
2022/04/07 05:58:10;;;;;;;9.90;2.10;;;10.10;99.90;;;;;;5137474;27;20283;-79
2022/04/07 06:00:38;;;;;;;4.90;1.90;;;10.00;99.90;;;;;;5137469;27;20227;-79
2022/04/07 06:03:07;;;;;;;7.57;2.07;;;10.00;99.90;;;;;;5138276;27;20206;-80
2022/04/07 06:05:36;;;;;;;6.93;1.87;;;9.90;99.90;;;;;;5139011;27;20210;-78
2022/04/07 06:08:04;;;;;;;7.03;1.90;;;10.00;99.90;;;;;;5138476;27;20253;-81
2022/04/07 06:10:31;;;;;;;8.13;2.30;;;10.00;99.90;;;;;;5138267;27;20204;-81
2022/04/07 06:12:57;;;;;;;5.03;1.93;;;10.10;99.90;;;;;;5138186;27;20192;-82
2022/04/07 06:15:26;;;;;;;4.07;2.27;;;10.10;99.90;;;;;;5137995;27;20649;-79
2022/04/07 06:17:56;;;;;;;9.97;2.13;;;10.10;99.90;;;;;;5137844;27;20196;-81
2022/04/07 06:20:23;;;;;;;6.60;1.93;;;10.20;99.90;;;;;;5137611;27;20195;-80
2022/04/07 06:22:50;;;;;;;6.17;1.60;;;10.20;99.90;;;;;;5137589;27;20211;-79
2022/04/07 06:25:17;;;;;;;5.63;1.90;;;10.20;99.90;;;;;;5138280;27;20275;-80
2022/04/07 06:27:45;;;;;;;3.03;1.80;;;10.30;99.90;;;;;;5138984;27;20204;-81
2022/04/07 06:30:14;;;;;;;5.80;2.10;;;10.40;99.90;;;;;;5138997;27;20302;-79
2022/04/07 06:32:42;;;;;;;5.83;1.63;;;10.40;99.90;;;;;;5138768;27;20204;-81
2022/04/07 06:35:12;;;;;;;6.47;2.20;;;10.40;99.90;;;;;;5138061;27;20286;-80
2022/04/07 06:37:49;;;;;;;5.23;2.00;;;10.40;99.90;;;;;;5137844;27;20639;-73
2022/04/07 06:40:20;;;;;;;4.40;1.90;;;10.40;99.90;;;;;;5130367;27;20643;-76
2022/04/07 06:42:47;;;;;;;4.83;2.00;;;10.30;99.90;;;;;;5128691;27;20200;-79
2022/04/07 06:45:14;;;;;;;3.97;1.67;;;10.40;99.90;;;;;;5137164;27;20677;-77
2022/04/07 06:47:41;;;;;;;5.27;1.70;;;10.40;99.90;;;;;;5136702;27;20231;-79
2022/04/07 06:50:12;;;;;;;2.30;1.50;;;10.40;99.90;;;;;;5137048;27;20646;-78
2022/04/07 06:52:39;;;;;;;5.90;1.67;;;10.50;99.90;;;;;;5137837;27;20204;-76
2022/04/07 06:55:06;;;;;;;5.13;2.10;;;10.50;99.90;;;;;;5137406;27;20203;-76
2022/04/07 06:57:48;;;;;;;2.13;1.90;;;10.50;99.90;;;;;;5136992;27;20207;-79
2022/04/07 07:00:17;;;;;;;4.50;1.57;;;10.60;99.90;;;;;;5136664;27;20203;-74
2022/04/07 07:02:45;;;;;;;5.47;1.70;;;10.60;99.90;;;;;;5136498;27;20228;-73
2022/04/07 07:05:13;;;;;;;2.87;1.40;;;10.60;99.90;;;;;;5137303;27;20248;-77
2022/04/07 07:07:42;;;;;;;4.23;1.50;;;10.60;99.90;;;;;;5136944;27;20206;-77
2022/04/07 07:10:09;;;;;;;3.77;2.20;;;10.60;99.90;;;;;;5120027;27;20208;-77
2022/04/07 07:12:36;;;;;;;3.00;1.50;;;10.60;99.90;;;;;;5116597;28;20204;-80
2022/04/07 07:15:04;;;;;;;2.03;1.53;;;10.60;99.90;;;;;;5117688;27;20185;-77
2022/04/07 07:17:34;;;;;;;3.70;1.67;;;10.60;99.90;;;;;;5130049;27;20189;-73
2022/04/07 07:20:02;;;;;;;4.67;1.60;;;10.60;99.90;;;;;;5136238;27;20208;-73
2022/04/07 07:22:31;;;;;;;2.83;1.70;;;10.60;99.90;;;;;;5124301;27;20496;-76
2022/04/07 07:24:57;;;;;;;3.80;1.57;;;10.60;99.90;;;;;;5126524;27;20188;-74
2022/04/07 07:27:24;;;;;;;3.60;1.43;;;10.60;99.90;;;;;;5127188;27;20188;-74
2022/04/07 07:29:51;;;;;;;3.37;1.30;;;10.70;99.90;;;;;;5125638;27;20220;-75
2022/04/07 07:32:18;;;;;;;3.93;1.63;;;10.70;99.90;;;;;;5117676;27;20200;-76
2022/04/07 07:34:47;;;;;;;3.63;1.60;;;10.70;99.90;;;;;;5113924;28;20197;-79
2022/04/07 07:37:18;;;;;;;3.13;2.05;;;10.70;99.90;;;;;;5113584;28;20500;-77
2022/04/07 07:39:46;;;;;;;2.80;1.70;;;10.70;99.90;;;;;;5114213;28;20196;-74
2022/04/07 07:42:13;;;;;;;4.20;2.40;;;10.70;99.90;;;;;;5113945;28;20239;-73
2022/04/07 07:44:40;;;;;;;3.17;2.80;;;10.70;99.90;;;;;;5114016;28;20607;-74
2022/04/07 07:47:07;;;;;;;2.17;1.60;;;10.70;99.90;;;;;;5114939;28;20577;-74
2022/04/07 07:49:35;;;;;;;3.73;1.60;;;10.60;99.90;;;;;;5113818;28;20191;-78
2022/04/07 07:52:02;;;;;;;2.53;1.43;;;10.60;99.90;;;;;;5115471;28;20200;-75
2022/04/07 07:54:28;;;;;;;1.60;1.05;;;10.70;99.90;;;;;;5113611;28;20424;-79
2022/04/07 07:56:57;;;;;;;0.87;0.87;;;10.70;99.90;;;;;;5112937;28;20192;-77
2022/04/07 07:59:24;;;;;;;1.63;1.20;;;10.70;99.90;;;;;;5113410;28;20589;-80
2022/04/07 08:01:51;;;;;;;1.60;0.60;;;10.60;99.90;;;;;;5113326;28;20230;-78
2022/04/07 08:04:20;;;;;;;2.27;0.60;;;10.70;99.90;;;;;;5113971;28;20204;-80
2022/04/07 08:06:47;;;;;;;1.77;0.80;;;10.70;99.90;;;;;;5114373;28;20200;-77
2022/04/07 08:09:14;;;;;;;5.67;3.53;;;10.60;99.90;;;;;;5114066;28;20188;-80
2022/04/07 08:11:41;;;;;;;3.00;0.70;;;10.60;99.90;;;;;;5114470;28;20639;-81
2022/04/07 08:14:10;;;;;;;1.70;0.80;;;10.60;99.90;;;;;;5114234;28;20189;-75
2022/04/07 08:16:37;;;;;;;0.70;0.60;;;10.60;99.90;;;;;;5114362;28;20197;-80
2022/04/07 08:19:04;;;;;;;1.00;0.60;;;10.50;99.90;;;;;;5114440;28;20658;-83
2022/04/07 08:21:31;;;;;;;0.93;0.60;;;10.40;99.90;;;;;;5113854;28;20228;-78
2022/04/07 08:23:58;;;;;;;2.80;0.60;;;10.30;99.90;;;;;;5114296;28;20192;-76
2022/04/07 08:26:24;;;;;;;0.93;0.70;;;10.30;99.90;;;;;;5113408;28;20435;-78
2022/04/07 08:28:51;;;;;;;1.30;0.60;;;10.20;99.90;;;;;;5113454;28;20191;-73
2022/04/07 08:31:19;;;;;;;1.33;0.70;;;10.30;99.90;;;;;;5114068;28;20196;-84
2022/04/07 08:33:46;;;;;;;2.00;0.90;;;10.30;99.90;;;;;;5114514;27;20556;-82
2022/04/07 08:36:13;;;;;;;0.80;0.60;;;10.40;99.90;;;;;;5113963;28;20212;-81
2022/04/07 08:38:40;;;;;;;1.70;0.70;;;10.50;99.90;;;;;;5114568;28;20207;-78
2022/04/07 08:41:09;;;;;;;2.67;0.73;;;10.60;99.90;;;;;;5116200;28;20207;-82
2022/04/07 08:43:38;;;;;;;1.70;0.50;;;10.70;99.90;;;;;;5115601;28;20539;-82
2022/04/07 08:46:08;;;;;;;1.73;0.70;;;10.70;99.90;;;;;;5115662;28;20734;-82
2022/04/07 08:48:38;;;;;;;1.23;0.70;;;10.70;99.90;;;;;;5114960;28;20200;-79
2022/04/07 08:51:06;;;;;;;1.20;0.70;;;10.80;99.90;;;;;;5116429;28;20238;-79
2022/04/07 08:53:34;;;;;;;1.53;0.83;;;11.00;99.90;;;;;;5119101;28;20230;-80
2022/04/07 08:56:02;;;;;;;1.97;0.63;;;11.00;99.90;;;;;;5118797;28;20205;-78
2022/04/07 08:58:28;;;;;;;2.13;0.90;;;11.10;99.90;;;;;;5117814;28;20431;-85
2022/04/07 09:00:55;;;;;;;3.17;0.80;;;11.00;99.90;;;;;;5119102;27;20658;-79
2022/04/07 09:03:22;;;;;;;3.47;0.80;;;10.90;99.90;;;;;;5118323;28;20216;-85
2022/04/07 09:05:56;;;;;;;1.07;0.87;;;11.00;99.90;;;;;;5118960;28;20196;-81
2022/04/07 09:08:31;;;;;;;1.70;0.70;;;11.00;99.90;;;;;;5118513;28;20188;-83
2022/04/07 09:11:01;;;;;;;2.53;0.70;;;11.00;99.90;;;;;;5119136;28;20249;-85
2022/04/07 09:13:34;;;;;;;4.40;0.80;;;11.00;99.90;;;;;;5120182;28;20273;-86
2022/04/07 09:16:02;;;;;;;4.63;0.90;;;11.10;99.90;;;;;;5118467;28;20425;-88
2022/04/07 09:18:33;;;;;;;2.67;1.00;;;11.10;99.90;;;;;;5117887;28;20432;-77
2022/04/07 09:21:03;;;;;;;3.50;1.00;;;11.10;99.90;;;;;;5129593;27;20198;-78
2022/04/07 09:23:37;;;;;;;2.47;0.97;;;11.10;99.90;;;;;;5122161;27;20227;-89
2022/04/07 09:26:06;;;;;;;4.27;1.00;;;11.00;99.90;;;;;;5130110;27;20188;-84
2022/04/07 09:28:34;;;;;;;5.10;1.23;;;11.10;99.90;;;;;;5118086;28;20196;-82
2022/04/07 09:31:06;;;;;;;5.23;1.20;;;11.10;99.90;;;;;;5119505;28;20197;-86
2022/04/07 09:33:35;;;;;;;3.30;1.13;;;11.10;99.90;;;;;;5130201;27;20203;-87
2022/04/07 09:36:10;;;;;;;3.80;1.20;;;11.10;99.90;;;;;;5142636;27;20234;-88
2022/04/07 09:38:37;;;;;;;4.13;1.43;;;11.20;99.90;;;;;;5140176;27;20199;-79
2022/04/07 09:41:06;;;;;;;3.37;0.90;;;11.30;99.90;;;;;;5137695;27;20547;-80
2022/04/07 09:43:43;;;;;;;4.63;1.87;;;11.30;99.90;;;;;;5137923;27;20219;-82
2022/04/07 09:46:12;;;;;;;4.37;0.83;;;11.40;99.90;;;;;;5120407;27;20221;-81
2022/04/07 09:48:41;;;;;;;5.05;1.45;;;11.50;99.90;;;;;;5117217;27;20424;-86
2022/04/07 09:51:09;;;;;;;4.83;1.40;;;11.40;99.90;;;;;;5137194;27;20629;-84
2022/04/07 09:53:40;;;;;;;4.13;1.10;;;11.40;99.90;;;;;;5137286;27;20208;-84
2022/04/07 09:56:09;;;;;;;6.37;2.23;;;11.40;99.90;;;;;;5117312;27;20208;-83
2022/04/07 09:58:36;;;;;;;10.40;1.23;;;11.60;99.90;;;;;;5116397;27;20209;-80
2022/04/07 10:01:05;;;;;;;3.23;1.13;;;11.70;99.90;;;;;;5129922;27;20196;-80
2022/04/07 10:03:33;;;;;;;2.88;1.08;;;11.70;99.90;;;;;;5128335;27;20446;-85
2022/04/07 10:06:01;;;;;;;5.77;1.30;;;11.80;99.90;;;;;;5119496;27;20200;-83
2022/04/07 10:08:31;;;;;;;9.27;1.93;;;11.80;99.90;;;;;;5116672;27;20201;-83
2022/04/07 10:11:00;;;;;;;6.23;1.80;;;11.80;99.90;;;;;;5136009;27;20207;-82
2022/04/07 10:13:30;;;;;;;7.47;1.40;;;11.80;99.90;;;;;;5120178;27;20648;-79
2022/04/07 10:15:58;;;;;;;7.27;1.90;;;11.80;99.90;;;;;;5115980;28;20201;-82
2022/04/07 10:18:29;;;;;;;5.57;1.30;;;12.00;99.90;;;;;;5124679;27;20182;-81
2022/04/07 10:20:59;;;;;;;5.03;1.33;;;12.10;99.90;;;;;;5120635;27;20468;-80
2022/04/07 10:23:47;;;;;;;3.67;1.30;;;12.20;99.90;;;;;;5122654;27;20225;-86
2022/04/07 10:26:22;;;;;;;4.87;1.40;;;12.10;99.90;;;;;;5116530;27;20243;-87
2022/04/07 10:28:59;;;;;;;4.13;1.23;;;12.10;99.90;;;;;;5133179;27;20234;-82
2022/04/07 10:31:28;;;;;;;4.93;1.57;;;12.10;99.90;;;;;;5139252;27;20216;-87
2022/04/07 10:34:08;;;;;;;5.73;1.63;;;12.20;99.90;;;;;;5128305;27;20301;-84
2022/04/07 10:37:01;;;;;;;5.37;1.60;;;12.30;99.90;;;;;;5121356;28;20213;-86
2022/04/07 10:39:33;;;;;;;5.50;1.40;;;12.30;99.90;;;;;;5117846;28;20545;-90
2022/04/07 10:42:05;;;;;;;4.43;1.40;;;12.40;99.90;;;;;;5118119;28;20221;-89
2022/04/07 10:44:36;;;;;;;5.27;1.60;;;12.50;99.90;;;;;;5117521;27;20209;-92
2022/04/07 10:47:06;;;;;;;6.97;1.63;;;12.60;99.90;;;;;;5117881;28;20199;-89
2022/04/07 10:49:36;;;;;;;5.00;1.67;;;12.60;99.90;;;;;;5118384;28;20700;-87
2022/04/07 10:52:07;;;;;;;9.30;1.93;;;12.60;99.90;;;;;;5118643;27;20209;-90
2022/04/07 10:55:11;;;;;;;7.68;2.58;;;12.70;99.90;;;;;;5118153;28;20460;-92
2022/04/07 10:58:10;;;;;;;8.50;2.03;;;12.70;99.90;;;;;;5129959;27;20247;-89
2022/04/07 11:00:39;;;;;;;6.50;1.90;;;12.90;99.90;;;;;;5116400;28;20206;-90
2022/04/07 11:03:19;;;;;;;9.33;1.33;;;12.90;99.90;;;;;;5119456;28;20239;-91
2022/04/07 11:06:00;;;;;;;5.27;1.80;;;12.90;99.90;;;;;;5136499;27;20201;-91
2022/04/07 11:08:30;;;;;;;5.70;1.67;;;12.80;99.90;;;;;;5141787;27;20217;-92
2022/04/07 11:11:00;;;;;;;6.93;1.97;;;12.80;99.90;;;;;;5126833;27;20198;-91
2022/04/07 11:13:44;;;;;;;8.80;2.10;;;12.70;99.90;;;;;;5131641;27;20551;-92
2022/04/07 11:16:29;;;;;;;5.83;1.97;;;13.00;99.90;;;;;;5136298;27;20727;-91
2022/04/07 11:19:13;;;;;;;9.97;1.80;;;13.00;99.90;;;;;;5138704;27;20189;-92
2022/04/07 11:21:49;;;;;;;6.50;2.00;;;13.00;99.90;;;;;;5138122;27;20206;-89
2022/04/07 11:24:26;;;;;;;7.37;1.93;;;13.00;99.90;;;;;;5138523;27;20249;-90
2022/04/07 11:27:34;;;;;;;5.13;1.37;;;13.00;99.90;;;;;;5138720;27;20629;-92
2022/04/07 11:30:06;;;;;;;9.35;2.60;;;12.80;99.90;;;;;;5138525;27;20430;-89
2022/04/07 11:32:41;;;;;;;9.70;2.47;;;12.60;99.90;;;;;;5136880;27;20279;-90
2022/04/07 11:35:15;;;;;;;6.17;2.00;;;12.80;99.90;;;;;;5137170;27;20213;-87
2022/04/07 11:37:43;;;;;;;8.43;2.40;;;12.80;99.90;;;;;;5138100;27;20308;-90
2022/04/07 11:40:12;;;;;;;4.40;1.97;;;12.80;99.90;;;;;;5137848;27;20675;-89
2022/04/07 11:42:40;;;;;;;5.97;2.00;;;12.60;99.90;;;;;;5137934;27;20225;-91
2022/04/07 11:45:09;;;;;;;10.23;2.23;;;12.60;99.90;;;;;;5135862;27;20206;-89
2022/04/07 11:47:37;;;;;;;10.33;3.17;;;12.60;99.90;;;;;;5134637;27;20439;-90
2022/04/07 11:50:10;;;;;;;11.00;2.63;;;12.60;99.90;;;;;;5135575;27;20450;-89
2022/04/07 11:52:40;;;;;;;10.63;2.33;;;12.60;99.90;;;;;;5136225;27;20249;-91
2022/04/07 11:55:11;;;;;;;11.93;2.80;;;12.90;99.90;;;;;;5136378;27;20202;-88
2022/04/07 11:57:43;;;;;;;9.37;2.90;;;13.00;99.90;;;;;;5136370;27;20638;-91
2022/04/07 12:00:48;;;;;;;17.23;2.50;;;13.00;99.90;;;;;;5136642;27;20241;-88
2022/04/07 12:03:16;;;;;;;9.90;2.27;;;12.70;99.90;;;;;;5128073;27;20227;-89
2022/04/07 12:06:07;;;;;;;7.87;2.40;;;12.70;99.90;;;;;;5115362;28;20238;-87
2022/04/07 12:08:39;;;;;;;7.80;2.53;;;12.80;99.90;;;;;;5115331;28;20213;-90
2022/04/07 12:11:08;;;;;;;7.20;2.07;;;12.70;99.90;;;;;;5115954;28;20190;-90
2022/04/07 12:13:38;;;;;;;7.77;2.37;;;12.80;99.90;;;;;;5116217;28;20187;-88
2022/04/07 12:16:10;;;;;;;12.40;2.37;;;12.90;99.90;;;;;;5116777;28;20205;-90
2022/04/07 12:18:52;;;;;;;8.27;2.23;;;12.90;99.90;;;;;;5116932;27;20221;-88
2022/04/07 12:21:21;;;;;;;12.13;3.13;;;12.90;99.90;;;;;;5122855;27;20205;-90
2022/04/07 12:23:49;;;;;;;6.77;2.23;;;12.80;99.90;;;;;;5126128;27;20284;-85
2022/04/07 12:26:17;;;;;;;7.90;2.20;;;12.60;99.90;;;;;;5133255;28;20201;-86
2022/04/07 12:28:45;;;;;;;8.70;2.30;;;12.70;99.90;;;;;;5136259;27;20198;-83
2022/04/07 12:31:22;;;;;;;12.43;2.30;;;13.00;99.90;;;;;;5142111;27;20216;-83
2022/04/07 12:33:50;;;;;;;9.20;2.30;;;13.00;99.90;;;;;;5151883;27;20262;-82
2022/04/07 12:36:36;;;;;;;9.77;2.33;;;12.70;99.90;;;;;;5147262;27;20272;-85
2022/04/07 12:39:12;;;;;;;12.27;2.63;;;12.60;99.90;;;;;;5145853;27;20190;-83
2022/04/07 12:41:46;;;;;;;9.32;2.95;;;12.70;99.90;;;;;;5145675;27;20457;-86
2022/04/07 12:44:21;;;;;;;6.67;2.07;;;12.80;99.90;;;;;;5146776;28;20236;-91
2022/04/07 12:46:52;;;;;;;7.23;2.10;;;12.70;99.90;;;;;;5141834;27;20280;-85
2022/04/07 12:49:35;;;;;;;7.37;2.30;;;12.70;99.90;;;;;;5133909;27;20206;-86
2022/04/07 12:52:04;;;;;;;7.33;2.57;;;12.80;99.90;;;;;;5127279;27;20197;-86
2022/04/07 12:54:31;;;;;;;11.90;2.93;;;12.70;99.90;;;;;;5126925;27;20198;-88
2022/04/07 12:57:13;;;;;;;7.77;2.27;;;12.70;99.90;;;;;;5125803;27;20281;-87